sensor_id;sensor_type;location;lat;lon;timestamp;P1;durP1;ratioP1;P2;durP2;ratioP2
30303;SDS011;17112;48.636;10.152;2023-05-02T00:00:47;2.40;;;2.05;;
30303;SDS011;17112;48.636;10.152;2023-05-02T00:03:13;4.15;;;2.28;;
30303;SDS011;17112;48.636;10.152;2023-05-02T00:05:40;2.20;;;1.98;;
30303;SDS011;17112;48.636;10.152;2023-05-02T00:08:06;3.00;;;1.70;;
30303;SDS011;17112;48.636;10.152;2023-05-02T00:10:32;3.20;;;1.88;;
30303;SDS011;17112;48.636;10.152;2023-05-02T00:12:58;2.28;;;2.08;;
30303;SDS011;17112;48.636;10.152;2023-05-02T00:15:24;4.63;;;2.22;;
30303;SDS011;17112;48.636;10.152;2023-05-02T00:17:51;2.20;;;2.00;;
30303;SDS011;17112;48.636;10.152;2023-05-02T00:20:17;3.00;;;2.20;;
30303;SDS011;17112;48.636;10.152;2023-05-02T00:22:43;3.55;;;2.60;;
30303;SDS011;17112;48.636;10.152;2023-05-02T00:25:08;2.58;;;2.25;;
30303;SDS011;17112;48.636;10.152;2023-05-02T00:27:34;3.33;;;2.40;;
30303;SDS011;17112;48.636;10.152;2023-05-02T00:30:00;2.85;;;2.58;;
30303;SDS011;17112;48.636;10.152;2023-05-02T00:32:26;3.45;;;2.80;;
30303;SDS011;17112;48.636;10.152;2023-05-02T00:34:52;2.65;;;2.45;;
30303;SDS011;17112;48.636;10.152;2023-05-02T00:37:18;3.58;;;2.67;;
30303;SDS011;17112;48.636;10.152;2023-05-02T00:39:44;3.10;;;2.80;;
30303;SDS011;17112;48.636;10.152;2023-05-02T00:42:09;2.88;;;2.50;;
30303;SDS011;17112;48.636;10.152;2023-05-02T00:44:35;2.78;;;2.50;;
30303;SDS011;17112;48.636;10.152;2023-05-02T00:47:01;3.53;;;2.38;;
30303;SDS011;17112;48.636;10.152;2023-05-02T00:49:27;3.13;;;2.20;;
30303;SDS011;17112;48.636;10.152;2023-05-02T00:51:53;2.25;;;2.05;;
30303;SDS011;17112;48.636;10.152;2023-05-02T00:54:19;3.05;;;2.08;;
30303;SDS011;17112;48.636;10.152;2023-05-02T00:56:45;2.35;;;2.10;;
30303;SDS011;17112;48.636;10.152;2023-05-02T00:59:11;2.17;;;1.98;;
30303;SDS011;17112;48.636;10.152;2023-05-02T01:13:11;3.08;;;2.55;;
30303;SDS011;17112;48.636;10.152;2023-05-02T01:15:44;2.88;;;2.38;;
30303;SDS011;17112;48.636;10.152;2023-05-02T01:18:12;4.05;;;2.42;;
30303;SDS011;17112;48.636;10.152;2023-05-02T01:20:42;3.00;;;2.40;;
30303;SDS011;17112;48.636;10.152;2023-05-02T01:23:14;2.40;;;2.20;;
30303;SDS011;17112;48.636;10.152;2023-05-02T01:31:11;3.67;;;2.10;;
30303;SDS011;17112;48.636;10.152;2023-05-02T01:33:40;2.85;;;2.15;;
30303;SDS011;17112;48.636;10.152;2023-05-02T01:36:07;2.40;;;2.20;;
30303;SDS011;17112;48.636;10.152;2023-05-02T01:38:33;2.60;;;2.40;;
30303;SDS011;17112;48.636;10.152;2023-05-02T01:41:00;3.45;;;2.38;;
30303;SDS011;17112;48.636;10.152;2023-05-02T01:43:29;4.85;;;2.40;;
30303;SDS011;17112;48.636;10.152;2023-05-02T01:45:58;3.40;;;2.60;;
30303;SDS011;17112;48.636;10.152;2023-05-02T01:48:26;2.72;;;2.13;;
30303;SDS011;17112;48.636;10.152;2023-05-02T01:50:53;5.07;;;2.33;;
30303;SDS011;17112;48.636;10.152;2023-05-02T01:53:21;2.10;;;1.90;;
30303;SDS011;17112;48.636;10.152;2023-05-02T01:55:52;2.80;;;2.50;;
30303;SDS011;17112;48.636;10.152;2023-05-02T01:58:20;3.05;;;2.75;;
30303;SDS011;17112;48.636;10.152;2023-05-02T02:00:47;5.05;;;3.53;;
30303;SDS011;17112;48.636;10.152;2023-05-02T02:03:14;5.45;;;3.83;;
30303;SDS011;17112;48.636;10.152;2023-05-02T02:05:41;5.05;;;3.85;;
30303;SDS011;17112;48.636;10.152;2023-05-02T02:08:09;5.50;;;3.50;;
30303;SDS011;17112;48.636;10.152;2023-05-02T02:10:35;4.50;;;3.92;;
30303;SDS011;17112;48.636;10.152;2023-05-02T02:13:12;6.40;;;3.72;;
30303;SDS011;17112;48.636;10.152;2023-05-02T02:15:50;3.63;;;3.30;;
30303;SDS011;17112;48.636;10.152;2023-05-02T02:18:22;4.13;;;3.47;;
30303;SDS011;17112;48.636;10.152;2023-05-02T02:20:53;3.47;;;3.17;;
30303;SDS011;17112;48.636;10.152;2023-05-02T02:23:23;3.65;;;2.92;;
30303;SDS011;17112;48.636;10.152;2023-05-02T02:25:52;3.90;;;3.33;;
30303;SDS011;17112;48.636;10.152;2023-05-02T02:28:19;3.70;;;3.25;;
30303;SDS011;17112;48.636;10.152;2023-05-02T02:30:45;5.43;;;3.50;;
30303;SDS011;17112;48.636;10.152;2023-05-02T02:33:11;9.40;;;3.20;;
30303;SDS011;17112;48.636;10.152;2023-05-02T02:35:37;3.83;;;3.00;;
30303;SDS011;17112;48.636;10.152;2023-05-02T02:41:00;3.33;;;3.03;;
30303;SDS011;17112;48.636;10.152;2023-05-02T02:43:43;5.60;;;3.60;;
30303;SDS011;17112;48.636;10.152;2023-05-02T02:46:40;3.63;;;3.13;;
30303;SDS011;17112;48.636;10.152;2023-05-02T02:49:14;6.30;;;3.42;;
30303;SDS011;17112;48.636;10.152;2023-05-02T02:54:46;4.25;;;3.00;;
30303;SDS011;17112;48.636;10.152;2023-05-02T02:57:29;3.78;;;3.17;;
30303;SDS011;17112;48.636;10.152;2023-05-02T03:00:07;4.72;;;4.05;;
30303;SDS011;17112;48.636;10.152;2023-05-02T03:02:40;5.30;;;3.97;;
30303;SDS011;17112;48.636;10.152;2023-05-02T03:05:07;5.70;;;3.97;;
30303;SDS011;17112;48.636;10.152;2023-05-02T03:07:35;8.02;;;4.63;;
30303;SDS011;17112;48.636;10.152;2023-05-02T03:10:03;13.45;;;4.97;;
30303;SDS011;17112;48.636;10.152;2023-05-02T03:12:30;13.68;;;4.68;;
30303;SDS011;17112;48.636;10.152;2023-05-02T03:17:58;13.73;;;4.57;;
30303;SDS011;17112;48.636;10.152;2023-05-02T03:20:24;24.48;;;4.90;;
30303;SDS011;17112;48.636;10.152;2023-05-02T03:22:50;13.18;;;4.40;;
30303;SDS011;17112;48.636;10.152;2023-05-02T03:25:16;18.75;;;4.70;;
30303;SDS011;17112;48.636;10.152;2023-05-02T03:27:41;17.23;;;5.18;;
30303;SDS011;17112;48.636;10.152;2023-05-02T03:30:07;8.18;;;5.35;;
30303;SDS011;17112;48.636;10.152;2023-05-02T03:32:33;7.43;;;5.35;;
30303;SDS011;17112;48.636;10.152;2023-05-02T03:34:59;18.13;;;5.25;;
30303;SDS011;17112;48.636;10.152;2023-05-02T03:37:24;11.05;;;5.30;;
30303;SDS011;17112;48.636;10.152;2023-05-02T03:39:50;17.75;;;5.13;;
30303;SDS011;17112;48.636;10.152;2023-05-02T03:42:16;11.70;;;4.80;;
30303;SDS011;17112;48.636;10.152;2023-05-02T03:44:41;14.43;;;4.70;;
30303;SDS011;17112;48.636;10.152;2023-05-02T03:47:07;15.85;;;4.95;;
30303;SDS011;17112;48.636;10.152;2023-05-02T03:49:33;7.80;;;4.78;;
30303;SDS011;17112;48.636;10.152;2023-05-02T03:51:59;6.68;;;4.95;;
30303;SDS011;17112;48.636;10.152;2023-05-02T03:54:25;7.80;;;4.90;;
30303;SDS011;17112;48.636;10.152;2023-05-02T03:56:54;14.65;;;5.10;;
30303;SDS011;17112;48.636;10.152;2023-05-02T03:59:19;7.05;;;4.78;;
30303;SDS011;17112;48.636;10.152;2023-05-02T04:01:47;6.32;;;4.88;;
30303;SDS011;17112;48.636;10.152;2023-05-02T04:04:14;6.43;;;4.80;;
30303;SDS011;17112;48.636;10.152;2023-05-02T04:06:40;5.55;;;4.80;;
30303;SDS011;17112;48.636;10.152;2023-05-02T04:09:06;12.65;;;4.97;;
30303;SDS011;17112;48.636;10.152;2023-05-02T04:11:32;6.57;;;4.90;;
30303;SDS011;17112;48.636;10.152;2023-05-02T04:13:58;5.88;;;4.50;;
30303;SDS011;17112;48.636;10.152;2023-05-02T04:16:24;6.32;;;5.25;;
30303;SDS011;17112;48.636;10.152;2023-05-02T04:18:49;7.30;;;4.88;;
30303;SDS011;17112;48.636;10.152;2023-05-02T04:21:15;5.90;;;4.57;;
30303;SDS011;17112;48.636;10.152;2023-05-02T04:23:41;7.45;;;4.72;;
30303;SDS011;17112;48.636;10.152;2023-05-02T04:26:07;6.25;;;4.22;;
30303;SDS011;17112;48.636;10.152;2023-05-02T04:28:33;5.32;;;4.60;;
30303;SDS011;17112;48.636;10.152;2023-05-02T04:30:59;4.80;;;4.05;;
30303;SDS011;17112;48.636;10.152;2023-05-02T04:33:25;5.38;;;4.28;;
30303;SDS011;17112;48.636;10.152;2023-05-02T04:35:51;4.70;;;3.95;;
30303;SDS011;17112;48.636;10.152;2023-05-02T04:38:17;5.03;;;3.95;;
30303;SDS011;17112;48.636;10.152;2023-05-02T04:40:42;4.38;;;3.85;;
30303;SDS011;17112;48.636;10.152;2023-05-02T04:43:08;5.65;;;4.35;;
30303;SDS011;17112;48.636;10.152;2023-05-02T04:45:34;5.15;;;3.75;;
30303;SDS011;17112;48.636;10.152;2023-05-02T04:48:00;5.40;;;4.07;;
30303;SDS011;17112;48.636;10.152;2023-05-02T04:50:26;7.13;;;4.15;;
30303;SDS011;17112;48.636;10.152;2023-05-02T04:52:52;5.80;;;4.18;;
30303;SDS011;17112;48.636;10.152;2023-05-02T04:55:18;4.32;;;3.55;;
30303;SDS011;17112;48.636;10.152;2023-05-02T04:57:44;9.32;;;4.30;;
30303;SDS011;17112;48.636;10.152;2023-05-02T05:00:10;4.03;;;3.63;;
30303;SDS011;17112;48.636;10.152;2023-05-02T05:02:36;4.93;;;3.75;;
30303;SDS011;17112;48.636;10.152;2023-05-02T05:05:03;4.45;;;3.30;;
30303;SDS011;17112;48.636;10.152;2023-05-02T05:07:29;4.63;;;3.67;;
30303;SDS011;17112;48.636;10.152;2023-05-02T05:09:55;5.68;;;3.83;;
30303;SDS011;17112;48.636;10.152;2023-05-02T05:12:20;8.60;;;3.92;;
30303;SDS011;17112;48.636;10.152;2023-05-02T05:14:47;9.40;;;4.13;;
30303;SDS011;17112;48.636;10.152;2023-05-02T05:17:14;5.75;;;3.92;;
30303;SDS011;17112;48.636;10.152;2023-05-02T05:19:40;5.07;;;4.07;;
30303;SDS011;17112;48.636;10.152;2023-05-02T05:22:06;6.15;;;4.28;;
30303;SDS011;17112;48.636;10.152;2023-05-02T05:24:32;9.63;;;4.30;;
30303;SDS011;17112;48.636;10.152;2023-05-02T05:26:58;5.18;;;4.40;;
30303;SDS011;17112;48.636;10.152;2023-05-02T05:29:23;5.55;;;4.45;;
30303;SDS011;17112;48.636;10.152;2023-05-02T05:31:49;6.05;;;4.68;;
30303;SDS011;17112;48.636;10.152;2023-05-02T05:34:15;7.25;;;5.40;;
30303;SDS011;17112;48.636;10.152;2023-05-02T05:36:40;6.68;;;5.45;;
30303;SDS011;17112;48.636;10.152;2023-05-02T05:39:06;7.13;;;5.60;;
30303;SDS011;17112;48.636;10.152;2023-05-02T05:41:32;7.35;;;5.60;;
30303;SDS011;17112;48.636;10.152;2023-05-02T05:43:59;9.60;;;5.57;;
30303;SDS011;17112;48.636;10.152;2023-05-02T05:46:25;8.40;;;5.80;;
30303;SDS011;17112;48.636;10.152;2023-05-02T05:48:50;7.05;;;5.22;;
30303;SDS011;17112;48.636;10.152;2023-05-02T05:51:16;9.55;;;4.70;;
30303;SDS011;17112;48.636;10.152;2023-05-02T05:53:42;7.53;;;4.70;;
30303;SDS011;17112;48.636;10.152;2023-05-02T05:56:10;7.07;;;4.75;;
30303;SDS011;17112;48.636;10.152;2023-05-02T05:58:37;5.95;;;5.18;;
30303;SDS011;17112;48.636;10.152;2023-05-02T06:01:03;6.57;;;5.03;;
30303;SDS011;17112;48.636;10.152;2023-05-02T06:03:29;8.07;;;5.65;;
30303;SDS011;17112;48.636;10.152;2023-05-02T06:05:55;9.52;;;5.78;;
30303;SDS011;17112;48.636;10.152;2023-05-02T06:08:21;9.88;;;5.95;;
30303;SDS011;17112;48.636;10.152;2023-05-02T06:10:47;10.18;;;6.13;;
30303;SDS011;17112;48.636;10.152;2023-05-02T06:13:12;12.55;;;7.70;;
30303;SDS011;17112;48.636;10.152;2023-05-02T06:15:38;11.55;;;7.82;;
30303;SDS011;17112;48.636;10.152;2023-05-02T06:18:04;10.85;;;8.25;;
30303;SDS011;17112;48.636;10.152;2023-05-02T06:20:29;14.52;;;8.55;;
30303;SDS011;17112;48.636;10.152;2023-05-02T06:22:55;12.00;;;8.30;;
30303;SDS011;17112;48.636;10.152;2023-05-02T06:25:21;15.93;;;9.02;;
30303;SDS011;17112;48.636;10.152;2023-05-02T06:27:46;13.32;;;8.85;;
30303;SDS011;17112;48.636;10.152;2023-05-02T06:30:12;10.30;;;7.45;;
30303;SDS011;17112;48.636;10.152;2023-05-02T06:32:38;11.10;;;7.53;;
30303;SDS011;17112;48.636;10.152;2023-05-02T06:35:05;10.27;;;7.40;;
30303;SDS011;17112;48.636;10.152;2023-05-02T06:37:33;9.00;;;6.90;;
30303;SDS011;17112;48.636;10.152;2023-05-02T06:39:59;10.95;;;6.00;;
30303;SDS011;17112;48.636;10.152;2023-05-02T06:42:25;7.30;;;6.03;;
30303;SDS011;17112;48.636;10.152;2023-05-02T06:44:51;8.10;;;5.22;;
30303;SDS011;17112;48.636;10.152;2023-05-02T06:47:17;7.05;;;5.30;;
30303;SDS011;17112;48.636;10.152;2023-05-02T06:49:42;7.20;;;5.47;;
30303;SDS011;17112;48.636;10.152;2023-05-02T06:52:08;9.68;;;6.45;;
30303;SDS011;17112;48.636;10.152;2023-05-02T06:54:33;6.70;;;5.40;;
30303;SDS011;17112;48.636;10.152;2023-05-02T06:56:59;7.63;;;6.03;;
30303;SDS011;17112;48.636;10.152;2023-05-02T06:59:26;7.05;;;5.80;;
30303;SDS011;17112;48.636;10.152;2023-05-02T07:01:52;8.13;;;5.70;;
30303;SDS011;17112;48.636;10.152;2023-05-02T07:04:17;7.88;;;6.00;;
30303;SDS011;17112;48.636;10.152;2023-05-02T07:06:43;10.55;;;6.65;;
30303;SDS011;17112;48.636;10.152;2023-05-02T07:09:10;9.73;;;5.72;;
30303;SDS011;17112;48.636;10.152;2023-05-02T07:11:36;7.75;;;6.40;;
30303;SDS011;17112;48.636;10.152;2023-05-02T07:14:01;8.65;;;6.45;;
30303;SDS011;17112;48.636;10.152;2023-05-02T07:16:27;9.00;;;7.00;;
30303;SDS011;17112;48.636;10.152;2023-05-02T07:18:53;11.25;;;6.50;;
30303;SDS011;17112;48.636;10.152;2023-05-02T07:21:18;8.35;;;6.20;;
30303;SDS011;17112;48.636;10.152;2023-05-02T07:23:44;10.10;;;5.95;;
30303;SDS011;17112;48.636;10.152;2023-05-02T07:26:10;7.90;;;5.22;;
30303;SDS011;17112;48.636;10.152;2023-05-02T07:28:35;7.32;;;5.45;;
30303;SDS011;17112;48.636;10.152;2023-05-02T07:31:01;10.20;;;5.15;;
30303;SDS011;17112;48.636;10.152;2023-05-02T07:33:27;9.73;;;5.95;;
30303;SDS011;17112;48.636;10.152;2023-05-02T07:35:53;7.30;;;5.22;;
30303;SDS011;17112;48.636;10.152;2023-05-02T07:38:20;9.25;;;6.03;;
30303;SDS011;17112;48.636;10.152;2023-05-02T07:40:46;10.32;;;6.15;;
30303;SDS011;17112;48.636;10.152;2023-05-02T07:43:12;8.25;;;5.95;;
30303;SDS011;17112;48.636;10.152;2023-05-02T07:45:38;7.32;;;5.57;;
30303;SDS011;17112;48.636;10.152;2023-05-02T07:48:04;7.95;;;5.68;;
30303;SDS011;17112;48.636;10.152;2023-05-02T07:50:30;7.45;;;5.72;;
30303;SDS011;17112;48.636;10.152;2023-05-02T07:52:55;7.35;;;5.20;;
30303;SDS011;17112;48.636;10.152;2023-05-02T07:55:21;6.53;;;5.28;;
30303;SDS011;17112;48.636;10.152;2023-05-02T07:57:47;4.93;;;4.45;;
30303;SDS011;17112;48.636;10.152;2023-05-02T08:00:13;6.18;;;5.18;;
30303;SDS011;17112;48.636;10.152;2023-05-02T08:02:42;6.55;;;4.55;;
30303;SDS011;17112;48.636;10.152;2023-05-02T08:05:09;6.28;;;4.93;;
30303;SDS011;17112;48.636;10.152;2023-05-02T08:07:35;9.45;;;5.22;;
30303;SDS011;17112;48.636;10.152;2023-05-02T08:10:00;6.97;;;4.93;;
30303;SDS011;17112;48.636;10.152;2023-05-02T08:12:26;7.00;;;5.78;;
30303;SDS011;17112;48.636;10.152;2023-05-02T08:14:52;7.18;;;5.85;;
30303;SDS011;17112;48.636;10.152;2023-05-02T08:17:18;6.88;;;5.30;;
30303;SDS011;17112;48.636;10.152;2023-05-02T08:19:44;6.22;;;4.95;;
30303;SDS011;17112;48.636;10.152;2023-05-02T08:22:09;6.97;;;5.25;;
30303;SDS011;17112;48.636;10.152;2023-05-02T08:24:35;9.05;;;5.60;;
30303;SDS011;17112;48.636;10.152;2023-05-02T08:27:01;6.15;;;5.30;;
30303;SDS011;17112;48.636;10.152;2023-05-02T08:29:30;7.45;;;6.07;;
30303;SDS011;17112;48.636;10.152;2023-05-02T08:31:56;14.18;;;5.80;;
30303;SDS011;17112;48.636;10.152;2023-05-02T08:34:22;6.80;;;5.88;;
30303;SDS011;17112;48.636;10.152;2023-05-02T08:36:47;8.27;;;6.35;;
30303;SDS011;17112;48.636;10.152;2023-05-02T08:39:13;6.95;;;5.55;;
30303;SDS011;17112;48.636;10.152;2023-05-02T08:41:39;7.47;;;5.30;;
30303;SDS011;17112;48.636;10.152;2023-05-02T08:44:05;7.47;;;5.80;;
30303;SDS011;17112;48.636;10.152;2023-05-02T08:46:34;8.00;;;6.35;;
30303;SDS011;17112;48.636;10.152;2023-05-02T08:49:01;6.80;;;5.88;;
30303;SDS011;17112;48.636;10.152;2023-05-02T08:51:27;8.10;;;6.57;;
30303;SDS011;17112;48.636;10.152;2023-05-02T08:53:56;7.03;;;6.10;;
30303;SDS011;17112;48.636;10.152;2023-05-02T08:56:22;8.73;;;6.82;;
30303;SDS011;17112;48.636;10.152;2023-05-02T08:58:49;7.25;;;6.53;;
30303;SDS011;17112;48.636;10.152;2023-05-02T09:01:16;10.35;;;5.95;;
30303;SDS011;17112;48.636;10.152;2023-05-02T09:03:43;6.68;;;5.50;;
30303;SDS011;17112;48.636;10.152;2023-05-02T09:06:16;7.00;;;5.85;;
30303;SDS011;17112;48.636;10.152;2023-05-02T09:08:44;7.22;;;5.63;;
30303;SDS011;17112;48.636;10.152;2023-05-02T09:11:13;9.75;;;5.88;;
30303;SDS011;17112;48.636;10.152;2023-05-02T09:13:40;7.22;;;5.60;;
30303;SDS011;17112;48.636;10.152;2023-05-02T09:16:09;7.78;;;5.72;;
30303;SDS011;17112;48.636;10.152;2023-05-02T09:18:45;6.15;;;5.25;;
30303;SDS011;17112;48.636;10.152;2023-05-02T09:21:16;6.50;;;5.55;;
30303;SDS011;17112;48.636;10.152;2023-05-02T09:23:44;7.13;;;5.43;;
30303;SDS011;17112;48.636;10.152;2023-05-02T09:28:44;6.75;;;4.88;;
30303;SDS011;17112;48.636;10.152;2023-05-02T09:31:13;5.57;;;4.75;;
30303;SDS011;17112;48.636;10.152;2023-05-02T09:33:54;5.78;;;4.75;;
30303;SDS011;17112;48.636;10.152;2023-05-02T09:36:21;6.18;;;5.07;;
30303;SDS011;17112;48.636;10.152;2023-05-02T09:38:47;6.72;;;4.95;;
30303;SDS011;17112;48.636;10.152;2023-05-02T09:41:14;6.35;;;5.03;;
30303;SDS011;17112;48.636;10.152;2023-05-02T09:43:41;5.40;;;4.82;;
30303;SDS011;17112;48.636;10.152;2023-05-02T09:46:08;5.97;;;4.93;;
30303;SDS011;17112;48.636;10.152;2023-05-02T09:48:54;6.93;;;5.28;;
30303;SDS011;17112;48.636;10.152;2023-05-02T09:51:21;5.20;;;4.50;;
30303;SDS011;17112;48.636;10.152;2023-05-02T09:53:48;9.75;;;4.88;;
30303;SDS011;17112;48.636;10.152;2023-05-02T09:56:15;9.45;;;5.40;;
30303;SDS011;17112;48.636;10.152;2023-05-02T09:58:41;6.00;;;5.10;;
30303;SDS011;17112;48.636;10.152;2023-05-02T10:01:12;7.68;;;5.43;;
30303;SDS011;17112;48.636;10.152;2023-05-02T10:03:40;6.72;;;4.90;;
30303;SDS011;17112;48.636;10.152;2023-05-02T10:06:06;7.60;;;5.32;;
30303;SDS011;17112;48.636;10.152;2023-05-02T10:08:33;7.80;;;5.38;;
30303;SDS011;17112;48.636;10.152;2023-05-02T10:10:59;5.82;;;5.00;;
30303;SDS011;17112;48.636;10.152;2023-05-02T10:13:29;6.43;;;4.38;;
30303;SDS011;17112;48.636;10.152;2023-05-02T10:16:02;6.43;;;4.20;;
30303;SDS011;17112;48.636;10.152;2023-05-02T10:21:11;7.05;;;4.55;;
30303;SDS011;17112;48.636;10.152;2023-05-02T10:23:40;5.82;;;3.55;;
30303;SDS011;17112;48.636;10.152;2023-05-02T10:26:14;4.18;;;3.67;;
30303;SDS011;17112;48.636;10.152;2023-05-02T10:28:41;4.65;;;4.00;;
30303;SDS011;17112;48.636;10.152;2023-05-02T10:31:10;6.25;;;4.25;;
30303;SDS011;17112;48.636;10.152;2023-05-02T10:33:37;4.30;;;3.60;;
30303;SDS011;17112;48.636;10.152;2023-05-02T10:36:04;5.43;;;4.30;;
30303;SDS011;17112;48.636;10.152;2023-05-02T10:38:32;6.35;;;4.50;;
30303;SDS011;17112;48.636;10.152;2023-05-02T10:40:59;5.47;;;3.95;;
30303;SDS011;17112;48.636;10.152;2023-05-02T10:43:29;5.43;;;3.95;;
30303;SDS011;17112;48.636;10.152;2023-05-02T10:45:56;4.70;;;3.88;;
30303;SDS011;17112;48.636;10.152;2023-05-02T10:48:23;4.88;;;3.70;;
30303;SDS011;17112;48.636;10.152;2023-05-02T10:50:50;4.15;;;3.53;;
30303;SDS011;17112;48.636;10.152;2023-05-02T10:58:40;5.85;;;3.50;;
30303;SDS011;17112;48.636;10.152;2023-05-02T11:06:29;4.78;;;3.55;;
30303;SDS011;17112;48.636;10.152;2023-05-02T11:11:42;5.20;;;3.78;;
30303;SDS011;17112;48.636;10.152;2023-05-02T11:14:09;4.55;;;3.90;;
30303;SDS011;17112;48.636;10.152;2023-05-02T11:19:28;6.38;;;3.80;;
30303;SDS011;17112;48.636;10.152;2023-05-02T11:24:45;5.32;;;3.42;;
30303;SDS011;17112;48.636;10.152;2023-05-02T11:30:00;5.65;;;3.20;;
30303;SDS011;17112;48.636;10.152;2023-05-02T11:35:20;4.10;;;3.30;;
30303;SDS011;17112;48.636;10.152;2023-05-02T11:40:19;6.13;;;3.67;;
30303;SDS011;17112;48.636;10.152;2023-05-02T11:42:45;4.38;;;3.20;;
30303;SDS011;17112;48.636;10.152;2023-05-02T11:45:11;3.63;;;3.33;;
30303;SDS011;17112;48.636;10.152;2023-05-02T11:47:37;4.80;;;3.10;;
30303;SDS011;17112;48.636;10.152;2023-05-02T11:50:06;6.72;;;3.40;;
30303;SDS011;17112;48.636;10.152;2023-05-02T11:52:39;6.05;;;4.43;;
30303;SDS011;17112;48.636;10.152;2023-05-02T11:55:06;4.40;;;3.38;;
30303;SDS011;17112;48.636;10.152;2023-05-02T11:57:35;6.97;;;3.55;;
30303;SDS011;17112;48.636;10.152;2023-05-02T12:00:01;4.25;;;3.17;;
30303;SDS011;17112;48.636;10.152;2023-05-02T12:02:44;3.67;;;3.38;;
30303;SDS011;17112;48.636;10.152;2023-05-02T12:05:12;4.93;;;3.33;;
30303;SDS011;17112;48.636;10.152;2023-05-02T12:07:43;6.07;;;3.25;;
30303;SDS011;17112;48.636;10.152;2023-05-02T12:10:10;6.25;;;3.70;;
30303;SDS011;17112;48.636;10.152;2023-05-02T12:12:37;6.35;;;3.30;;
30303;SDS011;17112;48.636;10.152;2023-05-02T12:15:05;6.15;;;3.33;;
30303;SDS011;17112;48.636;10.152;2023-05-02T12:17:33;3.97;;;3.22;;
30303;SDS011;17112;48.636;10.152;2023-05-02T12:20:03;8.10;;;3.53;;
30303;SDS011;17112;48.636;10.152;2023-05-02T12:22:30;4.30;;;3.45;;
30303;SDS011;17112;48.636;10.152;2023-05-02T12:24:56;3.53;;;3.10;;
30303;SDS011;17112;48.636;10.152;2023-05-02T12:27:22;4.60;;;3.03;;
30303;SDS011;17112;48.636;10.152;2023-05-02T12:29:48;3.75;;;3.08;;
30303;SDS011;17112;48.636;10.152;2023-05-02T12:32:25;8.18;;;3.05;;
30303;SDS011;17112;48.636;10.152;2023-05-02T12:34:52;3.90;;;2.72;;
30303;SDS011;17112;48.636;10.152;2023-05-02T12:37:21;4.60;;;2.70;;
30303;SDS011;17112;48.636;10.152;2023-05-02T12:39:48;3.90;;;2.92;;
30303;SDS011;17112;48.636;10.152;2023-05-02T12:42:15;4.32;;;3.03;;
30303;SDS011;17112;48.636;10.152;2023-05-02T12:44:42;5.82;;;2.50;;
30303;SDS011;17112;48.636;10.152;2023-05-02T12:47:10;5.20;;;2.95;;
30303;SDS011;17112;48.636;10.152;2023-05-02T12:49:53;5.30;;;2.75;;
30303;SDS011;17112;48.636;10.152;2023-05-02T12:52:28;3.58;;;2.72;;
30303;SDS011;17112;48.636;10.152;2023-05-02T12:55:16;7.63;;;3.00;;
30303;SDS011;17112;48.636;10.152;2023-05-02T12:57:49;4.25;;;3.05;;
30303;SDS011;17112;48.636;10.152;2023-05-02T13:00:18;4.63;;;3.40;;
30303;SDS011;17112;48.636;10.152;2023-05-02T13:02:43;3.95;;;2.80;;
30303;SDS011;17112;48.636;10.152;2023-05-02T13:05:16;3.30;;;2.67;;
30303;SDS011;17112;48.636;10.152;2023-05-02T13:07:42;3.58;;;2.10;;
30303;SDS011;17112;48.636;10.152;2023-05-02T13:10:07;3.35;;;2.40;;
30303;SDS011;17112;48.636;10.152;2023-05-02T13:12:35;4.38;;;1.92;;
30303;SDS011;17112;48.636;10.152;2023-05-02T13:15:02;3.85;;;1.98;;
30303;SDS011;17112;48.636;10.152;2023-05-02T13:17:29;2.08;;;1.63;;
30303;SDS011;17112;48.636;10.152;2023-05-02T13:19:55;2.42;;;1.58;;
30303;SDS011;17112;48.636;10.152;2023-05-02T13:22:21;1.40;;;1.30;;
30303;SDS011;17112;48.636;10.152;2023-05-02T13:24:47;2.42;;;1.45;;
30303;SDS011;17112;48.636;10.152;2023-05-02T13:27:13;1.50;;;1.40;;
30303;SDS011;17112;48.636;10.152;2023-05-02T13:29:39;1.88;;;1.40;;
30303;SDS011;17112;48.636;10.152;2023-05-02T13:32:05;1.50;;;1.10;;
30303;SDS011;17112;48.636;10.152;2023-05-02T13:34:30;3.03;;;1.30;;
30303;SDS011;17112;48.636;10.152;2023-05-02T13:36:56;2.38;;;1.10;;
30303;SDS011;17112;48.636;10.152;2023-05-02T13:39:21;1.25;;;1.00;;
30303;SDS011;17112;48.636;10.152;2023-05-02T13:41:47;1.13;;;1.02;;
30303;SDS011;17112;48.636;10.152;2023-05-02T13:44:13;1.65;;;1.00;;
30303;SDS011;17112;48.636;10.152;2023-05-02T13:46:38;0.93;;;0.80;;
30303;SDS011;17112;48.636;10.152;2023-05-02T13:49:04;1.77;;;0.88;;
30303;SDS011;17112;48.636;10.152;2023-05-02T13:51:32;0.85;;;0.80;;
30303;SDS011;17112;48.636;10.152;2023-05-02T13:53:59;0.93;;;0.73;;
30303;SDS011;17112;48.636;10.152;2023-05-02T13:56:25;1.00;;;0.80;;
30303;SDS011;17112;48.636;10.152;2023-05-02T13:58:51;2.80;;;0.90;;
30303;SDS011;17112;48.636;10.152;2023-05-02T14:01:16;1.63;;;1.10;;
30303;SDS011;17112;48.636;10.152;2023-05-02T14:03:42;0.80;;;0.80;;
30303;SDS011;17112;48.636;10.152;2023-05-02T14:06:08;4.93;;;1.42;;
30303;SDS011;17112;48.636;10.152;2023-05-02T14:08:35;3.90;;;1.20;;
30303;SDS011;17112;48.636;10.152;2023-05-02T14:11:00;4.30;;;3.08;;
30303;SDS011;17112;48.636;10.152;2023-05-02T14:13:27;4.38;;;3.60;;
30303;SDS011;17112;48.636;10.152;2023-05-02T14:15:53;7.65;;;3.95;;
30303;SDS011;17112;48.636;10.152;2023-05-02T14:18:18;4.32;;;3.83;;
30303;SDS011;17112;48.636;10.152;2023-05-02T14:20:44;6.80;;;4.75;;
30303;SDS011;17112;48.636;10.152;2023-05-02T14:23:10;7.38;;;5.03;;
30303;SDS011;17112;48.636;10.152;2023-05-02T14:25:36;7.50;;;4.82;;
30303;SDS011;17112;48.636;10.152;2023-05-02T14:28:02;5.32;;;3.90;;
30303;SDS011;17112;48.636;10.152;2023-05-02T14:30:28;5.30;;;4.20;;
30303;SDS011;17112;48.636;10.152;2023-05-02T14:32:55;6.30;;;4.45;;
30303;SDS011;17112;48.636;10.152;2023-05-02T14:35:21;4.80;;;4.30;;
30303;SDS011;17112;48.636;10.152;2023-05-02T14:37:47;4.97;;;4.47;;
30303;SDS011;17112;48.636;10.152;2023-05-02T14:40:13;4.53;;;3.90;;
30303;SDS011;17112;48.636;10.152;2023-05-02T14:42:41;8.40;;;4.55;;
30303;SDS011;17112;48.636;10.152;2023-05-02T14:45:08;4.80;;;4.32;;
30303;SDS011;17112;48.636;10.152;2023-05-02T14:47:34;5.32;;;4.45;;
30303;SDS011;17112;48.636;10.152;2023-05-02T14:50:01;5.63;;;4.22;;
30303;SDS011;17112;48.636;10.152;2023-05-02T14:52:28;8.02;;;4.50;;
30303;SDS011;17112;48.636;10.152;2023-05-02T14:54:53;5.60;;;4.25;;
30303;SDS011;17112;48.636;10.152;2023-05-02T14:57:19;4.60;;;3.67;;
30303;SDS011;17112;48.636;10.152;2023-05-02T14:59:45;5.30;;;4.18;;
30303;SDS011;17112;48.636;10.152;2023-05-02T15:02:11;5.97;;;4.43;;
30303;SDS011;17112;48.636;10.152;2023-05-02T15:04:36;4.68;;;3.55;;
30303;SDS011;17112;48.636;10.152;2023-05-02T15:07:02;5.75;;;3.92;;
30303;SDS011;17112;48.636;10.152;2023-05-02T15:09:28;7.18;;;4.00;;
30303;SDS011;17112;48.636;10.152;2023-05-02T15:11:54;6.38;;;3.50;;
30303;SDS011;17112;48.636;10.152;2023-05-02T15:14:20;4.72;;;3.95;;
30303;SDS011;17112;48.636;10.152;2023-05-02T15:16:46;5.43;;;4.28;;
30303;SDS011;17112;48.636;10.152;2023-05-02T15:19:12;5.28;;;3.88;;
30303;SDS011;17112;48.636;10.152;2023-05-02T15:21:38;4.40;;;4.00;;
30303;SDS011;17112;48.636;10.152;2023-05-02T15:24:03;8.23;;;4.13;;
30303;SDS011;17112;48.636;10.152;2023-05-02T15:26:30;6.57;;;4.78;;
30303;SDS011;17112;48.636;10.152;2023-05-02T15:28:56;9.73;;;5.07;;
30303;SDS011;17112;48.636;10.152;2023-05-02T15:31:22;7.28;;;4.05;;